createdAt,value
2022-10-08T00:01:14.583Z,32.40
2022-10-08T00:03:47.219Z,31.83
2022-10-08T00:06:14.101Z,32.28
2022-10-08T00:08:43.515Z,31.90
2022-10-08T00:11:14.531Z,31.95
2022-10-08T00:13:42.632Z,30.65
2022-10-08T00:16:15.422Z,30.77
2022-10-08T00:18:44.355Z,32.15
2022-10-08T00:21:17.533Z,31.33
2022-10-08T00:23:46.792Z,32.20
2022-10-08T00:26:15.214Z,31.45
2022-10-08T00:28:46.889Z,31.80
2022-10-08T00:31:17.852Z,31.45
2022-10-08T00:33:44.768Z,28.85
2022-10-08T00:36:13.208Z,28.98
2022-10-08T00:38:40.311Z,30.20
2022-10-08T00:41:16.568Z,27.35
2022-10-08T00:43:49.317Z,26.85
2022-10-08T00:46:37.184Z,29.40
2022-10-08T00:49:12.325Z,28.70
2022-10-08T00:51:44.316Z,28.80
2022-10-08T00:54:12.878Z,28.38
2022-10-08T00:56:40.971Z,31.85
2022-10-08T00:59:09.423Z,30.27
2022-10-08T01:01:37.110Z,28.73
2022-10-08T01:04:07.727Z,29.00
2022-10-08T01:07:18.182Z,29.17
2022-10-08T01:09:59.699Z,29.83
2022-10-08T01:12:29.618Z,27.65
2022-10-08T01:15:00.501Z,25.90
2022-10-08T01:17:39.433Z,28.45
2022-10-08T01:20:27.937Z,28.15
2022-10-08T01:23:03.686Z,31.80
2022-10-08T01:25:52.077Z,30.65
2022-10-08T01:28:27.989Z,25.52
2022-10-08T01:31:00.379Z,28.67
2022-10-08T01:33:44.830Z,26.48
2022-10-08T01:36:14.648Z,30.13
2022-10-08T01:38:46.253Z,31.25
2022-10-08T01:41:15.999Z,30.65
2022-10-08T01:43:49.423Z,30.02
2022-10-08T01:46:27.027Z,27.55
2022-10-08T01:48:59.094Z,29.15
2022-10-08T01:51:40.937Z,26.03
2022-10-08T01:54:12.376Z,25.88
2022-10-08T01:56:41.098Z,27.67
2022-10-08T01:59:15.748Z,30.60
2022-10-08T02:02:15.487Z,34.90
2022-10-08T02:04:42.716Z,31.45
2022-10-08T02:07:25.021Z,33.25
2022-10-08T02:09:54.383Z,40.77
2022-10-08T02:12:24.788Z,36.28
2022-10-08T02:14:54.350Z,38.47
2022-10-08T02:17:39.210Z,34.63
2022-10-08T02:20:20.719Z,32.55
2022-10-08T02:22:59.128Z,28.65
2022-10-08T02:25:34.348Z,22.67
2022-10-08T02:28:19.088Z,27.45
2022-10-08T02:31:23.485Z,23.55
2022-10-08T02:33:56.212Z,21.48
2022-10-08T02:36:28.490Z,24.13
2022-10-08T02:39:02.222Z,19.90
2022-10-08T02:41:51.870Z,22.98
2022-10-08T02:44:24.617Z,22.35
2022-10-08T02:46:54.919Z,24.35
2022-10-08T02:49:31.125Z,20.33
2022-10-08T02:52:01.960Z,21.27
2022-10-08T02:54:34.725Z,22.58
2022-10-08T02:57:09.666Z,21.35
2022-10-08T02:59:37.462Z,20.77
2022-10-08T03:02:05.472Z,21.88
2022-10-08T03:04:43.057Z,23.83
2022-10-08T03:07:12.423Z,23.65
2022-10-08T03:09:46.129Z,23.20
2022-10-08T03:12:13.336Z,24.70
2022-10-08T03:14:43.479Z,21.92
2022-10-08T03:17:14.341Z,23.75
2022-10-08T03:19:41.235Z,22.05
2022-10-08T03:22:08.318Z,22.58
2022-10-08T03:24:36.369Z,20.35
2022-10-08T03:27:03.997Z,23.40
2022-10-08T03:29:30.977Z,26.77
2022-10-08T03:31:57.893Z,25.48
2022-10-08T03:34:27.712Z,26.27
2022-10-08T03:36:54.602Z,29.50
2022-10-08T03:39:21.600Z,29.90
2022-10-08T03:41:48.499Z,38.03
2022-10-08T03:44:15.363Z,37.58
2022-10-08T03:46:42.278Z,40.17
2022-10-08T03:49:09.168Z,40.20
2022-10-08T03:51:36.129Z,42.65
2022-10-08T03:54:03.121Z,41.95
2022-10-08T03:56:30.143Z,48.78
2022-10-08T03:59:00.722Z,39.50
2022-10-08T04:01:28.681Z,40.78
2022-10-08T04:03:56.104Z,39.10
2022-10-08T04:06:23.477Z,46.13
2022-10-08T04:08:50.506Z,44.40
2022-10-08T04:11:18.298Z,40.85
2022-10-08T04:13:45.884Z,45.45
2022-10-08T04:16:19.811Z,39.58
2022-10-08T04:18:48.055Z,46.90
2022-10-08T04:21:17.293Z,50.78
2022-10-08T04:23:45.211Z,60.95
2022-10-08T04:26:13.728Z,55.75
2022-10-08T04:28:44.343Z,45.83
2022-10-08T04:31:16.732Z,41.75
2022-10-08T04:33:44.872Z,43.80
2022-10-08T04:36:14.897Z,44.92
2022-10-08T04:38:46.139Z,34.67
2022-10-08T04:41:14.337Z,33.80
2022-10-08T04:43:42.662Z,33.85
2022-10-08T04:46:11.877Z,33.80
2022-10-08T04:48:39.870Z,37.92
2022-10-08T04:51:10.477Z,32.67
2022-10-08T04:53:38.425Z,31.08
2022-10-08T04:56:29.765Z,37.05
2022-10-08T04:58:58.612Z,39.60
2022-10-08T05:01:26.839Z,42.70
2022-10-08T05:03:55.256Z,45.28
2022-10-08T05:06:25.719Z,53.08
2022-10-08T05:08:53.003Z,48.63
2022-10-08T05:11:22.155Z,53.28
2022-10-08T05:13:53.653Z,46.17
2022-10-08T05:16:21.322Z,41.47
2022-10-08T05:18:50.719Z,40.33
2022-10-08T05:21:21.218Z,37.17
2022-10-08T05:23:48.568Z,32.80
2022-10-08T05:26:41.430Z,31.75
2022-10-08T05:29:11.622Z,32.33
2022-10-08T05:31:38.959Z,37.42
2022-10-08T05:34:06.151Z,32.33
2022-10-08T05:36:34.622Z,35.90
2022-10-08T05:39:04.794Z,36.70
2022-10-08T05:41:34.403Z,46.60
2022-10-08T05:44:04.042Z,37.75
2022-10-08T05:46:33.423Z,34.58
2022-10-08T05:49:02.179Z,29.55
2022-10-08T05:51:29.887Z,37.22
2022-10-08T05:53:58.726Z,38.95
2022-10-08T05:56:27.109Z,34.38
2022-10-08T05:58:54.545Z,31.33
2022-10-08T06:01:28.200Z,36.45
2022-10-08T06:04:07.066Z,33.28
2022-10-08T06:06:39.923Z,36.17
2022-10-08T06:09:08.024Z,36.47
2022-10-08T06:11:37.027Z,31.45
2022-10-08T06:14:07.168Z,33.78
2022-10-08T06:16:35.313Z,29.23
2022-10-08T06:19:03.340Z,36.78
2022-10-08T06:21:31.114Z,32.85
2022-10-08T06:24:00.581Z,35.28
2022-10-08T06:26:35.122Z,45.75
2022-10-08T06:29:03.168Z,55.25
2022-10-08T06:31:30.142Z,47.05
2022-10-08T06:33:58.422Z,48.53
2022-10-08T06:36:27.582Z,55.47
2022-10-08T06:38:59.965Z,52.83
2022-10-08T06:41:30.389Z,50.70
2022-10-08T06:43:57.480Z,55.35
2022-10-08T06:46:24.429Z,39.67
2022-10-08T06:48:51.371Z,56.60
2022-10-08T06:51:19.598Z,41.60
2022-10-08T06:53:53.062Z,52.60
2022-10-08T06:56:20.696Z,47.63
2022-10-08T06:58:47.921Z,43.88
2022-10-08T07:01:22.796Z,42.42
2022-10-08T07:03:55.341Z,36.90
2022-10-08T07:06:22.862Z,36.65
2022-10-08T07:08:57.451Z,30.63
2022-10-08T07:11:25.004Z,37.03
2022-10-08T07:13:51.994Z,49.78
2022-10-08T07:16:21.795Z,51.08
2022-10-08T07:18:51.113Z,45.53
2022-10-08T07:21:20.177Z,35.35
2022-10-08T07:23:47.459Z,32.25
2022-10-08T07:26:22.552Z,29.27
2022-10-08T07:29:08.312Z,27.67
2022-10-08T07:31:37.030Z,33.45
2022-10-08T07:34:14.065Z,34.13
2022-10-08T07:36:41.573Z,32.15
2022-10-08T07:39:14.325Z,39.33
2022-10-08T07:44:10.583Z,36.92
2022-10-08T07:46:41.871Z,28.05
2022-10-08T07:49:08.936Z,29.40
2022-10-08T07:51:35.884Z,32.55
2022-10-08T07:54:04.997Z,20.83
2022-10-08T07:56:33.247Z,28.33
2022-10-08T07:59:01.596Z,30.13
2022-10-08T08:01:30.279Z,38.65
2022-10-08T08:04:06.845Z,41.38
2022-10-08T08:06:39.433Z,44.53
2022-10-08T08:09:06.398Z,43.60
2022-10-08T08:11:33.382Z,42.88
2022-10-08T08:14:00.315Z,30.02
2022-10-08T08:16:29.296Z,24.27
2022-10-08T08:18:59.368Z,24.52
2022-10-08T08:21:29.573Z,29.90
2022-10-08T08:23:58.652Z,28.05
2022-10-08T08:26:29.019Z,21.73
2022-10-08T08:29:01.383Z,24.35
2022-10-08T08:31:31.946Z,18.05
2022-10-08T08:34:19.598Z,19.52
2022-10-08T08:36:49.281Z,23.65
2022-10-08T08:39:23.197Z,26.48
2022-10-08T08:42:18.433Z,26.30
2022-10-08T08:44:49.315Z,27.35
2022-10-08T08:47:34.286Z,38.53
2022-10-08T08:50:06.193Z,35.28
2022-10-08T08:52:38.492Z,37.97
2022-10-08T08:55:17.991Z,31.80
2022-10-08T08:57:47.974Z,49.40
2022-10-08T09:00:18.716Z,38.33
2022-10-08T09:03:26.408Z,35.25
2022-10-08T09:05:57.360Z,45.92
2022-10-08T09:08:31.084Z,37.67
2022-10-08T09:11:03.556Z,27.85
2022-10-08T09:13:41.773Z,27.60
2022-10-08T09:16:12.796Z,28.38
2022-10-08T09:18:51.189Z,27.70
2022-10-08T09:21:19.477Z,25.92
2022-10-08T09:23:46.658Z,32.72
2022-10-08T09:26:23.857Z,18.40
2022-10-08T09:28:58.509Z,29.10
2022-10-08T09:31:31.313Z,34.38
2022-10-08T09:34:18.653Z,27.23
2022-10-08T09:36:51.149Z,16.77
2022-10-08T09:41:48.493Z,22.13
2022-10-08T09:44:20.028Z,17.48
2022-10-08T09:46:48.529Z,17.70
2022-10-08T09:49:41.931Z,18.73
2022-10-08T09:52:16.732Z,24.13
2022-10-08T09:54:49.051Z,22.27
2022-10-08T09:57:20.993Z,23.15
2022-10-08T09:59:57.575Z,35.20
2022-10-08T10:02:35.226Z,37.17
2022-10-08T10:05:07.925Z,37.05
2022-10-08T10:07:43.922Z,41.58
2022-10-08T10:10:28.908Z,45.20
2022-10-08T10:13:02.862Z,31.30
2022-10-08T10:15:39.658Z,28.83
2022-10-08T10:18:24.442Z,30.73
2022-10-08T10:20:58.696Z,28.92
2022-10-08T10:23:35.294Z,37.63
2022-10-08T10:26:21.951Z,27.77
2022-10-08T10:28:56.015Z,21.63
2022-10-08T10:31:23.748Z,11.80
2022-10-08T10:34:01.671Z,17.05
2022-10-08T10:36:56.479Z,13.00
2022-10-08T10:39:38.579Z,10.82
2022-10-08T10:42:20.607Z,12.35
2022-10-08T10:44:47.464Z,14.13
2022-10-08T10:47:15.292Z,14.32
2022-10-08T10:49:43.382Z,13.32
2022-10-08T10:52:36.407Z,15.98
2022-10-08T10:55:29.058Z,16.55
2022-10-08T10:57:56.046Z,18.10
2022-10-08T11:00:25.131Z,15.30
2022-10-08T11:03:03.095Z,15.40
2022-10-08T11:05:33.215Z,16.63
2022-10-08T11:08:27.305Z,16.65
2022-10-08T11:11:09.153Z,19.65
2022-10-08T11:14:18.616Z,12.88
2022-10-08T11:16:54.576Z,12.40
2022-10-08T11:19:29.811Z,17.73
2022-10-08T11:22:18.045Z,13.43
2022-10-08T11:24:57.032Z,14.15
2022-10-08T11:27:33.228Z,16.17
2022-10-08T11:30:20.034Z,13.25
2022-10-08T11:32:55.568Z,10.85
2022-10-08T11:35:29.617Z,14.40
2022-10-08T11:38:08.663Z,14.32
2022-10-08T11:40:49.273Z,13.30
2022-10-08T11:43:28.460Z,11.80
2022-10-08T11:46:29.840Z,11.80
2022-10-08T11:49:12.131Z,16.65
2022-10-08T11:51:52.423Z,12.13
2022-10-08T11:54:34.392Z,16.90
2022-10-08T11:57:23.029Z,17.98
2022-10-08T11:59:58.348Z,11.85
2022-10-08T12:02:36.144Z,17.83
2022-10-08T12:05:23.793Z,16.77
2022-10-08T12:07:56.522Z,16.60
2022-10-08T12:10:29.810Z,15.98
2022-10-08T12:13:01.166Z,15.25
2022-10-08T12:15:28.818Z,12.05
2022-10-08T12:18:10.754Z,15.02
2022-10-08T12:20:39.296Z,13.63
2022-10-08T12:23:32.191Z,13.85
2022-10-08T12:26:02.896Z,12.43
2022-10-08T12:28:32.728Z,15.80
2022-10-08T12:31:02.215Z,17.25
2022-10-08T12:33:30.669Z,16.08
2022-10-08T12:36:23.596Z,12.57
2022-10-08T12:39:02.995Z,15.13
2022-10-08T12:41:50.902Z,14.68
2022-10-08T12:44:36.682Z,17.05
2022-10-08T12:47:49.018Z,14.80
2022-10-08T12:50:31.387Z,20.48
2022-10-08T12:53:03.297Z,19.90
2022-10-08T12:55:37.907Z,17.70
2022-10-08T12:58:05.252Z,29.35
2022-10-08T13:00:34.301Z,17.98
2022-10-08T13:03:14.404Z,16.33
2022-10-08T13:05:46.507Z,14.65
2022-10-08T13:08:35.010Z,15.07
2022-10-08T13:11:14.152Z,14.00
2022-10-08T13:13:43.075Z,18.75
2022-10-08T13:16:24.494Z,25.05
2022-10-08T13:18:53.768Z,25.75
2022-10-08T13:21:34.677Z,27.65
2022-10-08T13:24:13.870Z,27.42
2022-10-08T13:26:45.129Z,31.98
2022-10-08T13:29:22.323Z,32.03
2022-10-08T13:31:58.413Z,28.05
2022-10-08T13:34:47.168Z,26.63
2022-10-08T13:37:23.183Z,20.67
2022-10-08T13:39:52.867Z,15.95
2022-10-08T13:42:23.593Z,15.77
2022-10-08T13:44:51.394Z,13.95
2022-10-08T13:47:22.371Z,15.20
2022-10-08T13:49:49.400Z,13.07
2022-10-08T13:52:21.587Z,19.25
2022-10-08T13:54:51.613Z,14.40
2022-10-08T13:57:18.648Z,13.40
2022-10-08T13:59:45.563Z,19.40
2022-10-08T14:02:42.212Z,16.10
2022-10-08T14:05:05.913Z,19.13
2022-10-08T14:07:35.324Z,17.40
2022-10-08T14:10:03.878Z,16.42
2022-10-08T14:12:33.585Z,21.33
2022-10-08T14:15:00.929Z,17.35
2022-10-08T14:17:27.943Z,21.50
2022-10-08T14:19:55.666Z,18.98
2022-10-08T14:22:23.196Z,23.42
2022-10-08T14:24:50.134Z,19.13
2022-10-08T14:27:17.343Z,17.70
2022-10-08T14:29:44.232Z,24.40
2022-10-08T14:32:12.070Z,17.77
2022-10-08T14:34:40.335Z,18.77
2022-10-08T14:37:07.440Z,19.65
2022-10-08T14:39:34.890Z,14.98
2022-10-08T14:42:01.775Z,20.15
2022-10-08T14:44:28.722Z,23.90
2022-10-08T14:46:55.669Z,20.10
2022-10-08T14:49:24.127Z,19.38
2022-10-08T14:51:51.079Z,22.42
2022-10-08T14:54:18.425Z,21.70
2022-10-08T14:56:46.820Z,24.27
2022-10-08T14:59:13.715Z,25.45
2022-10-08T15:01:40.700Z,24.70
2022-10-08T15:04:08.168Z,23.02
2022-10-08T15:06:35.258Z,20.88
2022-10-08T15:09:02.278Z,24.00
2022-10-08T15:11:29.162Z,27.92
2022-10-08T15:13:56.105Z,26.60
2022-10-08T15:16:23.213Z,25.75
2022-10-08T15:18:50.142Z,30.02
2022-10-08T15:21:18.985Z,31.85
2022-10-08T15:23:46.161Z,31.55
2022-10-08T15:26:15.533Z,29.73
2022-10-08T15:28:43.407Z,24.05
2022-10-08T15:31:13.404Z,26.67
2022-10-08T15:33:45.398Z,30.95
2022-10-08T15:36:31.980Z,29.88
2022-10-08T15:39:00.329Z,31.58
2022-10-08T15:41:28.729Z,28.23
2022-10-08T15:43:56.149Z,29.67
2022-10-08T15:46:29.011Z,33.58
2022-10-08T15:48:57.157Z,29.02
2022-10-08T15:51:25.193Z,25.80
2022-10-08T15:53:52.384Z,29.25
2022-10-08T15:56:19.281Z,25.77
2022-10-08T15:58:50.957Z,28.02
2022-10-08T16:01:23.252Z,27.95
2022-10-08T16:03:52.610Z,31.80
2022-10-08T16:06:22.723Z,38.45
2022-10-08T16:08:49.976Z,39.45
2022-10-08T16:11:23.564Z,35.22
2022-10-08T16:13:56.225Z,31.10
2022-10-08T16:18:56.091Z,34.00
2022-10-08T16:23:49.863Z,35.22
2022-10-08T16:26:21.224Z,35.42
2022-10-08T16:28:51.074Z,37.92
2022-10-08T16:31:19.135Z,47.83
2022-10-08T16:33:46.732Z,42.28
2022-10-08T16:36:14.774Z,41.25
2022-10-08T16:38:42.039Z,33.03
2022-10-08T16:41:21.322Z,35.78
2022-10-08T16:43:50.090Z,45.35
2022-10-08T16:46:25.741Z,58.35
2022-10-08T16:49:01.833Z,54.53
2022-10-08T16:51:35.405Z,45.17
2022-10-08T16:54:03.557Z,46.63
2022-10-08T16:56:32.940Z,46.67
2022-10-08T16:59:05.711Z,52.92
2022-10-08T17:01:34.073Z,45.63
2022-10-08T17:04:01.367Z,42.15
2022-10-08T17:06:29.275Z,42.58
2022-10-08T17:08:56.245Z,45.20
2022-10-08T17:11:23.203Z,40.10
2022-10-08T17:13:53.614Z,44.17
2022-10-08T17:16:23.548Z,50.05
2022-10-08T17:18:51.929Z,42.33
2022-10-08T17:21:19.001Z,53.50
2022-10-08T17:23:46.632Z,48.60
2022-10-08T17:26:31.793Z,52.15
2022-10-08T17:29:06.920Z,50.65
2022-10-08T17:31:35.013Z,49.92
2022-10-08T17:34:03.262Z,49.05
2022-10-08T17:36:32.844Z,57.85
2022-10-08T17:39:01.663Z,54.85
2022-10-08T17:41:31.989Z,50.88
2022-10-08T17:44:01.479Z,51.60
2022-10-08T17:46:33.260Z,53.92
2022-10-08T17:49:00.500Z,49.87
2022-10-08T17:51:29.286Z,54.13
2022-10-08T17:54:00.663Z,48.03
2022-10-08T17:56:28.616Z,50.65
2022-10-08T17:58:56.047Z,48.35
2022-10-08T18:01:26.948Z,46.58
2022-10-08T18:04:09.432Z,49.55
2022-10-08T18:06:42.593Z,48.83
2022-10-08T18:09:15.135Z,43.40
2022-10-08T18:11:47.226Z,41.33
2022-10-08T18:14:14.191Z,42.45
2022-10-08T18:16:45.564Z,49.80
2022-10-08T18:19:14.726Z,44.47
2022-10-08T18:21:41.669Z,45.65
2022-10-08T18:24:08.848Z,40.13
2022-10-08T18:26:37.675Z,39.80
2022-10-08T18:29:09.315Z,37.50
2022-10-08T18:31:37.729Z,46.55
2022-10-08T18:34:08.230Z,39.80
2022-10-08T18:36:37.723Z,36.22
2022-10-08T18:39:16.644Z,41.58
2022-10-08T18:41:45.947Z,37.60
2022-10-08T18:47:16.688Z,37.95
2022-10-08T18:49:43.613Z,42.17
2022-10-08T18:52:10.525Z,38.50
2022-10-08T18:54:37.491Z,41.65
2022-10-08T18:57:04.572Z,42.30
2022-10-08T18:59:32.191Z,40.20
2022-10-08T19:01:59.775Z,39.95
2022-10-08T19:04:27.622Z,40.38
2022-10-08T19:06:54.984Z,46.47
2022-10-08T19:09:22.150Z,43.92
2022-10-08T19:11:52.465Z,42.92
2022-10-08T19:14:21.535Z,41.05
2022-10-08T19:16:49.852Z,37.95
2022-10-08T19:19:19.467Z,44.50
2022-10-08T19:21:48.276Z,42.70
2022-10-08T19:24:18.017Z,44.75
2022-10-08T19:26:45.939Z,40.35
2022-10-08T19:29:25.056Z,40.67
2022-10-08T19:31:52.364Z,41.72
2022-10-08T19:34:24.901Z,46.05
2022-10-08T19:36:52.257Z,47.00
2022-10-08T19:39:24.686Z,45.75
2022-10-08T19:41:52.096Z,93.60
2022-10-08T19:44:19.806Z,58.08
2022-10-08T19:46:46.902Z,54.80
2022-10-08T19:49:14.497Z,61.63
2022-10-08T19:51:41.850Z,62.25
2022-10-08T19:54:09.099Z,58.00
2022-10-08T19:56:36.603Z,51.35
2022-10-08T19:59:04.187Z,46.33
2022-10-08T20:01:34.015Z,54.03
2022-10-08T20:04:02.856Z,51.83
2022-10-08T20:06:32.021Z,51.78
2022-10-08T20:09:01.539Z,59.40
2022-10-08T20:11:30.916Z,57.92
2022-10-08T20:13:59.249Z,50.53
2022-10-08T20:16:28.416Z,42.20
2022-10-08T20:19:01.022Z,39.22
2022-10-08T20:21:30.366Z,42.88
2022-10-08T20:23:57.647Z,38.70
2022-10-08T20:26:29.066Z,39.35
2022-10-08T20:29:11.765Z,51.80
2022-10-08T20:31:41.746Z,43.00
2022-10-08T20:34:17.645Z,38.40
2022-10-08T20:36:46.319Z,41.15
2022-10-08T20:39:15.772Z,41.10
2022-10-08T20:41:43.039Z,50.95
2022-10-08T20:44:10.435Z,40.78
2022-10-08T20:46:38.102Z,35.70
2022-10-08T20:49:06.070Z,40.72
2022-10-08T20:51:33.700Z,43.25
2022-10-08T20:54:03.525Z,41.60
2022-10-08T20:56:34.712Z,38.47
2022-10-08T20:59:04.744Z,37.30
2022-10-08T21:01:34.722Z,43.83
2022-10-08T21:04:02.101Z,39.80
2022-10-08T21:06:31.045Z,34.35
2022-10-08T21:08:59.423Z,39.00
2022-10-08T21:11:28.672Z,36.75
2022-10-08T21:13:55.853Z,39.40
2022-10-08T21:16:25.579Z,39.60
2022-10-08T21:19:01.429Z,35.72
2022-10-08T21:21:29.853Z,37.55
2022-10-08T21:23:57.637Z,37.67
2022-10-08T21:26:32.800Z,33.30
2022-10-08T21:29:02.087Z,31.73
2022-10-08T21:31:31.641Z,35.60
2022-10-08T21:33:59.812Z,32.60
2022-10-08T21:36:29.382Z,32.90
2022-10-08T21:38:57.786Z,33.22
2022-10-08T21:41:25.997Z,31.88
2022-10-08T21:43:56.803Z,32.38
2022-10-08T21:46:25.956Z,35.38
2022-10-08T21:49:01.364Z,36.88
2022-10-08T21:51:29.308Z,34.38
2022-10-08T21:53:58.518Z,35.65
2022-10-08T21:56:28.114Z,34.40
2022-10-08T21:59:00.854Z,34.50
2022-10-08T22:04:25.503Z,31.88
2022-10-08T22:06:58.470Z,30.73
2022-10-08T22:09:30.663Z,37.22
2022-10-08T22:11:58.816Z,31.60
2022-10-08T22:14:26.150Z,24.80
2022-10-08T22:16:53.434Z,28.15
2022-10-08T22:19:20.694Z,28.13
2022-10-08T22:21:47.690Z,26.42
2022-10-08T22:24:14.628Z,30.42
2022-10-08T22:26:44.565Z,26.20
2022-10-08T22:29:11.847Z,29.27
2022-10-08T22:31:39.543Z,25.95
2022-10-08T22:34:07.325Z,28.98
2022-10-08T22:36:38.822Z,27.10
2022-10-08T22:39:05.966Z,31.23
2022-10-08T22:41:33.798Z,27.25
2022-10-08T22:44:01.099Z,28.30
2022-10-08T22:46:37.189Z,29.08
2022-10-08T22:49:07.380Z,25.58
2022-10-08T22:51:34.539Z,26.65
2022-10-08T22:54:01.561Z,23.92
2022-10-08T22:56:30.564Z,27.23
2022-10-08T22:58:58.986Z,30.85
2022-10-08T23:01:27.841Z,27.25
2022-10-08T23:03:55.229Z,25.17
2022-10-08T23:06:27.999Z,25.55
2022-10-08T23:11:23.763Z,26.02
2022-10-08T23:13:56.332Z,24.10
2022-10-08T23:16:25.224Z,23.02
2022-10-08T23:19:02.512Z,23.17
2022-10-08T23:21:29.990Z,22.52
2022-10-08T23:23:57.185Z,26.33
2022-10-08T23:26:25.567Z,24.33
2022-10-08T23:28:55.288Z,26.48
2022-10-08T23:31:25.498Z,23.10
2022-10-08T23:33:53.537Z,25.58
2022-10-08T23:36:41.804Z,22.80
2022-10-08T23:39:12.104Z,23.13
2022-10-08T23:41:39.398Z,22.20
2022-10-08T23:44:06.665Z,24.30
2022-10-08T23:46:33.619Z,27.63
2022-10-08T23:49:00.601Z,21.88
2022-10-08T23:51:28.853Z,22.35
2022-10-08T23:53:55.755Z,24.48
2022-10-08T23:56:22.810Z,21.35
2022-10-08T23:58:50.089Z,20.70
